SHT47CW EGLL-EGPF
Flight info
| Callsign | SHT47CW |
|---|---|
| Flight time | N/A |
| Altitude | 32000 |
| Route | ULTIB T420 TNT UN57 POL UN601 RIBEL DCT ASLIB |
| Aircraft | A320/M-SDE3FGHIRWY/LB1 |
Departure
| Time | 2026-04-30 20:18 |
|---|---|
| Airport | London Heathrow Airport (EGLL) |
Arrival
| Time | N/A |
|---|---|
| Airport | Glasgow Airport (EGPF) |
| Time | Latitude | Longitude | Altitude | Speed | Heading |
|---|---|---|---|---|---|
| 2026-04-30 20:01 | 51.47399 | -0.48590 | 87 ft | 0 kts | 270° |
| 2026-04-30 20:06 | 51.47399 | -0.48551 | 87 ft | 4 kts | 273° |
| 2026-04-30 20:06 | 51.47393 | -0.48515 | 90 ft | 2 kts | 320° |
| 2026-04-30 20:07 | 51.47378 | -0.48494 | 89 ft | 4 kts | 276° |
| 2026-04-30 20:07 | 51.47386 | -0.48477 | 89 ft | 4 kts | 180° |
| 2026-04-30 20:07 | 51.47398 | -0.48477 | 87 ft | 0 kts | 180° |
| 2026-04-30 20:14 | 51.47394 | -0.48477 | 90 ft | 2 kts | 180° |
| 2026-04-30 20:14 | 51.47373 | -0.48477 | 87 ft | 4 kts | 180° |
| 2026-04-30 20:14 | 51.47336 | -0.48477 | 87 ft | 7 kts | 180° |
| 2026-04-30 20:14 | 51.47282 | -0.48476 | 87 ft | 9 kts | 180° |
| 2026-04-30 20:15 | 51.47210 | -0.48476 | 87 ft | 11 kts | 180° |
| 2026-04-30 20:15 | 51.47123 | -0.48475 | 87 ft | 14 kts | 180° |
| 2026-04-30 20:15 | 51.47017 | -0.48473 | 87 ft | 16 kts | 179° |
| 2026-04-30 20:15 | 51.46894 | -0.48472 | 89 ft | 19 kts | 180° |
| 2026-04-30 20:16 | 51.46753 | -0.48471 | 87 ft | 21 kts | 180° |
| 2026-04-30 20:16 | 51.46614 | -0.48470 | 87 ft | 10 kts | 180° |
| 2026-04-30 20:16 | 51.46592 | -0.48470 | 88 ft | 0 kts | 179° |
| 2026-04-30 20:16 | 51.46591 | -0.48470 | 88 ft | 1 kts | 179° |
| 2026-04-30 20:17 | 51.46581 | -0.48469 | 88 ft | 2 kts | 179° |
| 2026-04-30 20:17 | 51.46534 | -0.48469 | 89 ft | 10 kts | 180° |
| 2026-04-30 20:17 | 51.46480 | -0.48397 | 89 ft | 12 kts | 104° |
| 2026-04-30 20:17 | 51.46478 | -0.48210 | 88 ft | 35 kts | 89° |
| 2026-04-30 20:18 | 51.46482 | -0.47418 | 86 ft | 103 kts | 90° |
| 2026-04-30 20:18 | 51.46487 | -0.46002 | 90 ft | 149 kts | 89° |
| 2026-04-30 20:18 | 51.46497 | -0.44201 | 415 ft | 165 kts | 90° |
| 2026-04-30 20:18 | 51.46517 | -0.42362 | 1119 ft | 164 kts | 86° |
| 2026-04-30 20:19 | 51.46896 | -0.40577 | 1628 ft | 183 kts | 62° |
| 2026-04-30 20:19 | 51.47768 | -0.38875 | 1899 ft | 210 kts | 56° |
| 2026-04-30 20:19 | 51.48764 | -0.36965 | 2285 ft | 236 kts | 56° |
| 2026-04-30 20:19 | 51.49864 | -0.34856 | 2891 ft | 254 kts | 56° |
| 2026-04-30 20:20 | 51.51019 | -0.32648 | 3741 ft | 262 kts | 55° |
| 2026-04-30 20:20 | 51.52122 | -0.30369 | 4582 ft | 267 kts | 64° |
| 2026-04-30 20:20 | 51.52828 | -0.27584 | 5406 ft | 272 kts | 73° |
| 2026-04-30 20:20 | 51.53700 | -0.24840 | 5862 ft | 282 kts | 53° |
| 2026-04-30 20:21 | 51.55241 | -0.22911 | 5981 ft | 285 kts | 24° |
| 2026-04-30 20:21 | 51.57180 | -0.22374 | 6014 ft | 287 kts | 354° |
| 2026-04-30 20:21 | 51.59130 | -0.23057 | 6087 ft | 287 kts | 347° |
| 2026-04-30 20:21 | 51.61079 | -0.23780 | 6089 ft | 287 kts | 343° |
| 2026-04-30 20:22 | 51.62925 | -0.24997 | 6089 ft | 287 kts | 330° |
| 2026-04-30 20:22 | 51.64662 | -0.26594 | 6091 ft | 288 kts | 329° |
| 2026-04-30 20:22 | 51.66392 | -0.28233 | 6093 ft | 288 kts | 328° |
| 2026-04-30 20:22 | 51.68122 | -0.29900 | 6324 ft | 292 kts | 328° |
| 2026-04-30 20:23 | 51.69860 | -0.31586 | 7289 ft | 292 kts | 328° |
| 2026-04-30 20:23 | 51.71614 | -0.33283 | 8169 ft | 296 kts | 328° |
| 2026-04-30 20:23 | 51.73396 | -0.35004 | 9028 ft | 301 kts | 328° |
| 2026-04-30 20:23 | 51.75210 | -0.36755 | 9874 ft | 306 kts | 328° |
| 2026-04-30 20:24 | 51.77039 | -0.38524 | 10486 ft | 319 kts | 328° |
| 2026-04-30 20:24 | 51.79012 | -0.40435 | 10685 ft | 342 kts | 328° |
| 2026-04-30 20:24 | 51.81085 | -0.42445 | 11254 ft | 352 kts | 328° |
| 2026-04-30 20:24 | 51.83204 | -0.44498 | 11953 ft | 357 kts | 328° |
| 2026-04-30 20:25 | 51.87522 | -0.48687 | 13404 ft | 366 kts | 328° |
| 2026-04-30 20:25 | 51.89720 | -0.50826 | 14098 ft | 371 kts | 328° |
| 2026-04-30 20:26 | 51.94178 | -0.55173 | 15357 ft | 378 kts | 328° |
| 2026-04-30 20:26 | 51.98716 | -0.59605 | 16610 ft | 384 kts | 328° |
| 2026-04-30 20:26 | 52.01016 | -0.61855 | 17237 ft | 387 kts | 328° |
| 2026-04-30 20:27 | 52.05668 | -0.66419 | 18488 ft | 394 kts | 328° |
| 2026-04-30 20:27 | 52.10408 | -0.71080 | 19574 ft | 402 kts | 328° |
| 2026-04-30 20:28 | 52.15239 | -0.75829 | 20660 ft | 409 kts | 328° |
| 2026-04-30 20:28 | 52.20155 | -0.80681 | 21694 ft | 417 kts | 328° |
| 2026-04-30 20:29 | 52.25147 | -0.85634 | 22672 ft | 424 kts | 328° |
| 2026-04-30 20:30 | 52.32798 | -0.93230 | 24089 ft | 434 kts | 328° |
| 2026-04-30 20:30 | 52.40610 | -1.01015 | 25363 ft | 442 kts | 327° |
| 2026-04-30 20:31 | 52.48532 | -1.08987 | 26585 ft | 449 kts | 327° |
| 2026-04-30 20:32 | 52.56593 | -1.17094 | 27771 ft | 456 kts | 327° |
| 2026-04-30 20:32 | 52.62034 | -1.22584 | 28549 ft | 461 kts | 327° |
| 2026-04-30 20:33 | 52.64773 | -1.25360 | 28939 ft | 464 kts | 327° |
| 2026-04-30 20:33 | 52.70300 | -1.30968 | 29738 ft | 469 kts | 327° |
| 2026-04-30 20:33 | 52.73087 | -1.33800 | 30137 ft | 472 kts | 327° |
| 2026-04-30 20:34 | 52.78660 | -1.39487 | 30950 ft | 476 kts | 327° |
| 2026-04-30 20:34 | 52.84318 | -1.45277 | 31639 ft | 480 kts | 327° |
| 2026-04-30 20:35 | 52.87153 | -1.48180 | 32079 ft | 479 kts | 327° |
| 2026-04-30 20:35 | 52.89996 | -1.51099 | 32223 ft | 477 kts | 327° |
| 2026-04-30 20:35 | 52.95481 | -1.56748 | 32239 ft | 458 kts | 326° |
| 2026-04-30 20:36 | 53.00873 | -1.62309 | 32232 ft | 456 kts | 326° |
| 2026-04-30 20:37 | 53.09338 | -1.69447 | 32230 ft | 458 kts | 339° |
| 2026-04-30 20:37 | 53.15315 | -1.73128 | 32225 ft | 458 kts | 339° |
| 2026-04-30 20:38 | 53.21295 | -1.76838 | 32227 ft | 458 kts | 339° |
| 2026-04-30 20:38 | 53.27271 | -1.80562 | 32225 ft | 459 kts | 339° |
| 2026-04-30 20:39 | 53.36235 | -1.86184 | 32229 ft | 458 kts | 339° |
| 2026-04-30 20:40 | 53.45178 | -1.91802 | 32231 ft | 458 kts | 339° |
| 2026-04-30 20:40 | 53.51163 | -1.95564 | 32236 ft | 458 kts | 339° |
| 2026-04-30 20:41 | 53.60110 | -2.01224 | 32238 ft | 458 kts | 338° |
| 2026-04-30 20:41 | 53.66072 | -2.05019 | 32246 ft | 458 kts | 338° |
| 2026-04-30 20:42 | 53.72024 | -2.08819 | 32251 ft | 457 kts | 338° |
| 2026-04-30 20:43 | 53.80913 | -2.14672 | 32254 ft | 457 kts | 336° |
| 2026-04-30 20:43 | 53.86800 | -2.18745 | 32253 ft | 456 kts | 336° |
| 2026-04-30 20:44 | 53.95615 | -2.24849 | 32254 ft | 456 kts | 336° |
| 2026-04-30 20:45 | 54.07053 | -2.34016 | 32256 ft | 454 kts | 329° |
| 2026-04-30 20:45 | 54.12584 | -2.39219 | 32258 ft | 454 kts | 329° |
| 2026-04-30 20:46 | 54.23634 | -2.49622 | 32258 ft | 453 kts | 329° |
| 2026-04-30 20:47 | 54.31905 | -2.57451 | 32260 ft | 452 kts | 329° |
| 2026-04-30 20:48 | 54.40160 | -2.65301 | 32259 ft | 452 kts | 329° |
| 2026-04-30 20:48 | 54.45654 | -2.70552 | 32257 ft | 452 kts | 328° |
| 2026-04-30 20:49 | 54.51178 | -2.75841 | 32237 ft | 463 kts | 328° |
| 2026-04-30 20:50 | 54.59772 | -2.84114 | 32243 ft | 475 kts | 329° |
| 2026-04-30 20:50 | 54.65540 | -2.89673 | 32233 ft | 475 kts | 329° |
| 2026-04-30 20:51 | 54.71304 | -2.95241 | 32234 ft | 475 kts | 328° |
| 2026-04-30 20:51 | 54.79900 | -3.03598 | 32207 ft | 471 kts | 328° |
| 2026-04-30 20:52 | 54.82736 | -3.06369 | 31785 ft | 465 kts | 328° |
| 2026-04-30 20:52 | 54.85542 | -3.09118 | 31289 ft | 461 kts | 328° |
| 2026-04-30 20:52 | 54.90198 | -3.13690 | 30426 ft | 456 kts | 328° |
| 2026-04-30 20:53 | 54.92952 | -3.16395 | 29847 ft | 453 kts | 328° |
| 2026-04-30 20:53 | 54.95687 | -3.19076 | 29272 ft | 450 kts | 328° |
| 2026-04-30 20:53 | 54.98405 | -3.21747 | 28716 ft | 447 kts | 328° |
| 2026-04-30 20:54 | 55.03786 | -3.27063 | 27644 ft | 440 kts | 328° |
| 2026-04-30 20:54 | 55.06424 | -3.29676 | 26799 ft | 434 kts | 327° |
| 2026-04-30 20:54 | 55.09041 | -3.32272 | 25930 ft | 430 kts | 327° |
| 2026-04-30 20:55 | 55.14147 | -3.37342 | 24546 ft | 416 kts | 327° |
| 2026-04-30 20:55 | 55.16664 | -3.39847 | 23603 ft | 417 kts | 327° |
| 2026-04-30 20:55 | 55.19176 | -3.42353 | 22668 ft | 414 kts | 327° |
| 2026-04-30 20:56 | 55.24115 | -3.47289 | 21003 ft | 403 kts | 328° |
| 2026-04-30 20:56 | 55.26539 | -3.49710 | 20210 ft | 398 kts | 328° |
| 2026-04-30 20:56 | 55.31283 | -3.54472 | 18664 ft | 388 kts | 328° |
| 2026-04-30 20:57 | 55.33609 | -3.56812 | 17826 ft | 383 kts | 328° |
| 2026-04-30 20:57 | 55.35914 | -3.59131 | 16991 ft | 379 kts | 328° |
| 2026-04-30 20:57 | 55.38185 | -3.61414 | 16195 ft | 374 kts | 328° |
| 2026-04-30 20:58 | 55.42646 | -3.65918 | 14685 ft | 365 kts | 327° |
| 2026-04-30 20:58 | 55.44835 | -3.68141 | 13959 ft | 361 kts | 327° |
| 2026-04-30 20:58 | 55.46999 | -3.70340 | 13148 ft | 357 kts | 327° |
| 2026-04-30 20:58 | 55.49139 | -3.72514 | 12414 ft | 353 kts | 327° |
| 2026-04-30 20:59 | 55.53234 | -3.76668 | 11547 ft | 329 kts | 328° |
| 2026-04-30 20:59 | 55.55199 | -3.78668 | 10969 ft | 324 kts | 328° |
| 2026-04-30 21:00 | 55.59069 | -3.82610 | 9772 ft | 318 kts | 328° |
| 2026-04-30 21:00 | 55.62846 | -3.86475 | 8585 ft | 309 kts | 328° |